Spaceon02064 — ASD — position and weather

sailwx.info

Track history (hours):
 
Tides and Currents Weather Stations Pressure Air Temp Water Temp Dewpoint Dewpoint Depression Visibility Wind Speed Wind Dir Waves Ship Positions

Spaceon02064

Last reported at 2017-Jan-15 21:21 UTC. Time now 2017-Jan-17 00:44 UTC.
Position N 31°03' E 121°28'.

Length 6 m.

Type: Ship. MMSI: 200902064.

Date/timePositionNaut miles runAvg speedWind from/ knotsBaromVisibWave heightAir tempDewpointWater temp
2017-Jan-15 21:21N 31°03' E 121°28'6 6.5
2017-Jan-15 20:28N 31°09' E 121°27'5 6.0
2017-Jan-15 19:33N 31°14' E 121°29'7 6.2
2017-Jan-15 18:29N 31°20' E 121°33'4 3.9
2017-Jan-15 17:32N 31°24' E 121°32'8 8.4
2017-Jan-15 16:33N 31°21' E 121°41'8 7.9
2017-Jan-15 15:33N 31°15' E 121°47'7 7.0
2017-Jan-15 14:33N 31°10' E 121°53'5 5.1
2017-Jan-15 13:33N 31°07' E 121°58'4 4.2
2017-Jan-15 12:33N 31°04' E 122°02'8562013.9
2017-Jan-15 12:07N 21°19' E 110°25'0 0.0
2017-Jan-15 11:33N 21°19' E 110°25'0 0.0
2017-Jan-14 09:33N 21°19' E 110°25'0 0.0
2017-Jan-14 08:25N 21°19' E 110°25'85775.8
2017-Jan-13 21:07N 31°02' E 122°05'611.1
2017-Jan-13 20:33N 31°05' E 121°59'1111.2
2017-Jan-13 19:33N 31°12' E 121°49'9 9.2
2017-Jan-13 18:33N 31°19' E 121°41'7 7.1
2017-Jan-13 17:33N 31°23' E 121°34'3 3.2
2017-Jan-13 16:31N 31°21' E 121°32'5 5.6
2017-Jan-13 15:34N 31°16' E 121°33'6 5.9
2017-Jan-13 14:33N 31°11' E 121°28'8 7.5
2017-Jan-13 13:29N 31°03' E 121°28'834211.1
2017-Jan-13 09:32N 21°19' E 110°25'0 0.0
2017-Jan-13 08:33N 21°19' E 110°25'0 0.0
2017-Jan-13 07:31N 21°19' E 110°25'0 0.1
2017-Jan-13 06:26N 21°19' E 110°25'839283.1
2017-Jan-13 03:28N 31°11' E 121°28'4 4.4
2017-Jan-13 02:33N 31°15' E 121°30'4 4.1
2017-Jan-13 01:33N 31°17' E 121°34'4 0.6
2017-Jan-12 19:06N 31°20' E 121°33'3 5.9
2017-Jan-12 18:32N 31°23' E 121°30'6 6.5
2017-Jan-12 17:33N 31°22' E 121°37'8 8.3
2017-Jan-12 16:34N 31°17' E 121°45'9 9.4
2017-Jan-12 15:33N 31°10' E 121°52'9 8.7
2017-Jan-12 14:33N 31°05' E 122°01'4112.3
2017-Jan-12 11:13N 31°30' E 121°23'4 6.3
2017-Jan-12 10:32N 31°33' E 121°19'  
2017-Jan-08 21:30N 31°07' E 121°56'7 7.3
2017-Jan-08 20:32N 31°11' E 121°50'9 8.9
2017-Jan-08 19:33N 31°18' E 121°43'2485.2
2017-Jan-08 19:16N 31°02' E 122°04'5 7.5
2017-Jan-08 18:33N 31°05' E 121°59'28928.8
2017-Jan-08 18:32N 31°23' E 121°34'1919.7
2017-Jan-08 17:33N 31°11' E 121°50'3185.8
2017-Jan-08 17:12N 31°30' E 121°22'2234.4
2017-Jan-08 16:33N 31°18' E 121°43'29115.3
2017-Jan-08 16:18N 31°36' E 121°17'2127.6
2017-Jan-08 15:34N 31°22' E 121°36'2647337.7
2017-Jan-08 15:33N 31°40' E 121°12'2424.1
2017-Jan-08 14:33N 31°21' E 121°31'2 1.7
2017-Jan-08 13:33N 31°20' E 121°32'0 0.0
2017-Jan-08 12:33N 31°20' E 121°32'0 0.0
2017-Jan-08 11:26N 31°20' E 121°32'0 0.0
2017-Jan-08 10:23N 31°20' E 121°32'0 0.0
2017-Jan-08 09:32N 31°20' E 121°32'0 0.0
2017-Jan-08 08:29N 31°20' E 121°32'0 0.0
2017-Jan-08 07:29N 31°20' E 121°32'0 0.0
2017-Jan-08 06:31N 31°20' E 121°32'0 0.0
2017-Jan-08 05:28N 31°20' E 121°32'0 0.2
2017-Jan-08 04:26N 31°20' E 121°33'1 0.2
2017-Jan-07 22:06N 31°19' E 121°33'0 0.0
2017-Jan-07 21:24N 31°19' E 121°33'0 0.0
2017-Jan-07 19:32N 31°19' E 121°33'0 0.0
2017-Jan-07 18:29N 31°19' E 121°33'0 0.0
2017-Jan-07 17:29N 31°19' E 121°33'0 0.0
2017-Jan-07 16:29N 31°19' E 121°33'0 0.0
2017-Jan-07 15:32N 31°19' E 121°33'0 0.0
2017-Jan-07 12:19N 31°19' E 121°33'0 0.0
2017-Jan-07 11:19N 31°19' E 121°33'0 0.0
2017-Jan-07 08:21N 31°19' E 121°33'0 0.0
2017-Jan-07 07:06N 31°19' E 121°33'0 0.0
2017-Jan-07 05:17N 31°19' E 121°33'0 0.0
2017-Jan-07 04:14N 31°19' E 121°33'0 0.0
2017-Jan-07 02:20N 31°19' E 121°33'0 0.0
2017-Jan-07 01:29N 31°19' E 121°33'0 0.0
2017-Jan-07 00:10N 31°19' E 121°33'0 0.0
2017-Jan-06 23:10N 31°19' E 121°33'0 0.0
2017-Jan-06 22:28N 31°19' E 121°33'0 0.0
2017-Jan-06 21:28N 31°19' E 121°33'0 0.0
2017-Jan-06 20:31N 31°19' E 121°33'0 0.0
2017-Jan-06 16:33N 31°19' E 121°33'0 0.0
2017-Jan-06 14:29N 31°19' E 121°33'0 0.0
2017-Jan-06 11:23N 31°19' E 121°33'0 0.0
2017-Jan-06 07:18N 31°19' E 121°33'0 0.0
2017-Jan-06 06:18N 31°19' E 121°33'0 0.0
2017-Jan-06 05:06N 31°19' E 121°33'0 0.0
2017-Jan-06 03:18N 31°19' E 121°33'0 0.0
2017-Jan-06 02:11N 31°19' E 121°33'2131.6
2017-Jan-06 01:32N 31°35' E 121°18'2146.0
2017-Jan-06 01:05N 31°19' E 121°33'1324.4
2017-Jan-06 00:33N 31°30' E 121°25'1330.6
2017-Jan-06 00:08N 31°19' E 121°33'5 8.1
2017-Jan-05 23:32N 31°24' E 121°31'9 6.1
2017-Jan-05 22:08N 31°15' E 121°33'478.1
2017-Jan-05 22:05N 31°19' E 121°33'0 0.0
2017-Jan-05 21:28N 31°19' E 121°33'  
Track history (hours):
 
Tides and Currents Weather Stations Pressure Air Temp Water Temp Dewpoint Dewpoint Depression Visibility Wind Speed Wind Dir Waves Ship Positions

Spaceon02064

Last reported at 2017-Jan-15 21:21 UTC. Time now 2017-Jan-17 00:44 UTC.
Position N 31°03' E 121°28'.

Length 6 m.

Type: Ship. MMSI: 200902064.

Date/timePositionNaut miles runAvg speedWind from/ knotsBaromVisibWave heightAir tempDewpointWater temp
2017-Jan-15 21:21N 31°03' E 121°28'6 6.5
2017-Jan-15 20:28N 31°09' E 121°27'5 6.0
2017-Jan-15 19:33N 31°14' E 121°29'7 6.2
2017-Jan-15 18:29N 31°20' E 121°33'4 3.9
2017-Jan-15 17:32N 31°24' E 121°32'8 8.4
2017-Jan-15 16:33N 31°21' E 121°41'8 7.9
2017-Jan-15 15:33N 31°15' E 121°47'7 7.0
2017-Jan-15 14:33N 31°10' E 121°53'5 5.1
2017-Jan-15 13:33N 31°07' E 121°58'4 4.2
2017-Jan-15 12:33N 31°04' E 122°02'8562013.9
2017-Jan-15 12:07N 21°19' E 110°25'0 0.0
2017-Jan-15 11:33N 21°19' E 110°25'0 0.0
2017-Jan-14 09:33N 21°19' E 110°25'0 0.0
2017-Jan-14 08:25N 21°19' E 110°25'85775.8
2017-Jan-13 21:07N 31°02' E 122°05'611.1
2017-Jan-13 20:33N 31°05' E 121°59'1111.2
2017-Jan-13 19:33N 31°12' E 121°49'9 9.2
2017-Jan-13 18:33N 31°19' E 121°41'7 7.1
2017-Jan-13 17:33N 31°23' E 121°34'3 3.2
2017-Jan-13 16:31N 31°21' E 121°32'5 5.6
2017-Jan-13 15:34N 31°16' E 121°33'6 5.9
2017-Jan-13 14:33N 31°11' E 121°28'8 7.5
2017-Jan-13 13:29N 31°03' E 121°28'834211.1
2017-Jan-13 09:32N 21°19' E 110°25'0 0.0
2017-Jan-13 08:33N 21°19' E 110°25'0 0.0
2017-Jan-13 07:31N 21°19' E 110°25'0 0.1
2017-Jan-13 06:26N 21°19' E 110°25'839283.1
2017-Jan-13 03:28N 31°11' E 121°28'4 4.4
2017-Jan-13 02:33N 31°15' E 121°30'4 4.1
2017-Jan-13 01:33N 31°17' E 121°34'4 0.6
2017-Jan-12 19:06N 31°20' E 121°33'3 5.9
2017-Jan-12 18:32N 31°23' E 121°30'6 6.5
2017-Jan-12 17:33N 31°22' E 121°37'8 8.3
2017-Jan-12 16:34N 31°17' E 121°45'9 9.4
2017-Jan-12 15:33N 31°10' E 121°52'9 8.7
2017-Jan-12 14:33N 31°05' E 122°01'4112.3
2017-Jan-12 11:13N 31°30' E 121°23'4 6.3
2017-Jan-12 10:32N 31°33' E 121°19'  
2017-Jan-08 21:30N 31°07' E 121°56'7 7.3
2017-Jan-08 20:32N 31°11' E 121°50'9 8.9
2017-Jan-08 19:33N 31°18' E 121°43'2485.2
2017-Jan-08 19:16N 31°02' E 122°04'5 7.5
2017-Jan-08 18:33N 31°05' E 121°59'28928.8
2017-Jan-08 18:32N 31°23' E 121°34'1919.7
2017-Jan-08 17:33N 31°11' E 121°50'3185.8
2017-Jan-08 17:12N 31°30' E 121°22'2234.4
2017-Jan-08 16:33N 31°18' E 121°43'29115.3
2017-Jan-08 16:18N 31°36' E 121°17'2127.6
2017-Jan-08 15:34N 31°22' E 121°36'2647337.7
2017-Jan-08 15:33N 31°40' E 121°12'2424.1
2017-Jan-08 14:33N 31°21' E 121°31'2 1.7
2017-Jan-08 13:33N 31°20' E 121°32'0 0.0
2017-Jan-08 12:33N 31°20' E 121°32'0 0.0
2017-Jan-08 11:26N 31°20' E 121°32'0 0.0
2017-Jan-08 10:23N 31°20' E 121°32'0 0.0
2017-Jan-08 09:32N 31°20' E 121°32'0 0.0
2017-Jan-08 08:29N 31°20' E 121°32'0 0.0
2017-Jan-08 07:29N 31°20' E 121°32'0 0.0
2017-Jan-08 06:31N 31°20' E 121°32'0 0.0
2017-Jan-08 05:28N 31°20' E 121°32'0 0.2
2017-Jan-08 04:26N 31°20' E 121°33'1 0.2
2017-Jan-07 22:06N 31°19' E 121°33'0 0.0
2017-Jan-07 21:24N 31°19' E 121°33'0 0.0
2017-Jan-07 19:32N 31°19' E 121°33'0 0.0
2017-Jan-07 18:29N 31°19' E 121°33'0 0.0
2017-Jan-07 17:29N 31°19' E 121°33'0 0.0
2017-Jan-07 16:29N 31°19' E 121°33'0 0.0
2017-Jan-07 15:32N 31°19' E 121°33'0 0.0
2017-Jan-07 12:19N 31°19' E 121°33'0 0.0
2017-Jan-07 11:19N 31°19' E 121°33'0 0.0
2017-Jan-07 08:21N 31°19' E 121°33'0 0.0
2017-Jan-07 07:06N 31°19' E 121°33'0 0.0
2017-Jan-07 05:17N 31°19' E 121°33'0 0.0
2017-Jan-07 04:14N 31°19' E 121°33'0 0.0
2017-Jan-07 02:20N 31°19' E 121°33'0 0.0
2017-Jan-07 01:29N 31°19' E 121°33'0 0.0
2017-Jan-07 00:10N 31°19' E 121°33'0 0.0
2017-Jan-06 23:10N 31°19' E 121°33'0 0.0
2017-Jan-06 22:28N 31°19' E 121°33'0 0.0
2017-Jan-06 21:28N 31°19' E 121°33'0 0.0
2017-Jan-06 20:31N 31°19' E 121°33'0 0.0
2017-Jan-06 16:33N 31°19' E 121°33'0 0.0
2017-Jan-06 14:29N 31°19' E 121°33'0 0.0
2017-Jan-06 11:23N 31°19' E 121°33'0 0.0
2017-Jan-06 07:18N 31°19' E 121°33'0 0.0
2017-Jan-06 06:18N 31°19' E 121°33'0 0.0
2017-Jan-06 05:06N 31°19' E 121°33'0 0.0
2017-Jan-06 03:18N 31°19' E 121°33'0 0.0
2017-Jan-06 02:11N 31°19' E 121°33'2131.6
2017-Jan-06 01:32N 31°35' E 121°18'2146.0
2017-Jan-06 01:05N 31°19' E 121°33'1324.4
2017-Jan-06 00:33N 31°30' E 121°25'1330.6
2017-Jan-06 00:08N 31°19' E 121°33'5 8.1
2017-Jan-05 23:32N 31°24' E 121°31'9 6.1
2017-Jan-05 22:08N 31°15' E 121°33'478.1
2017-Jan-05 22:05N 31°19' E 121°33'0 0.0
2017-Jan-05 21:28N 31°19' E 121°33'  

Dump ship's entire track history